sensor_id;sensor_type;location;lat;lon;timestamp;temperature;humidity
21318;DHT22;10818;50.830;6.524;2023-09-12T00:04:29;21.30;99.90
21318;DHT22;10818;50.830;6.524;2023-09-12T00:09:30;21.40;99.90
21318;DHT22;10818;50.830;6.524;2023-09-12T00:14:30;21.30;99.90
21318;DHT22;10818;50.830;6.524;2023-09-12T00:19:31;21.20;99.90
21318;DHT22;10818;50.830;6.524;2023-09-12T00:24:31;21.00;99.90
21318;DHT22;10818;50.830;6.524;2023-09-12T00:29:31;21.00;99.90
21318;DHT22;10818;50.830;6.524;2023-09-12T00:34:32;21.00;99.90
21318;DHT22;10818;50.830;6.524;2023-09-12T00:39:33;20.90;99.90
21318;DHT22;10818;50.830;6.524;2023-09-12T00:44:33;20.80;99.90
21318;DHT22;10818;50.830;6.524;2023-09-12T00:49:34;20.90;99.90
21318;DHT22;10818;50.830;6.524;2023-09-12T00:54:35;20.80;99.90
21318;DHT22;10818;50.830;6.524;2023-09-12T00:59:35;20.60;99.90
21318;DHT22;10818;50.830;6.524;2023-09-12T01:04:36;20.60;99.90
21318;DHT22;10818;50.830;6.524;2023-09-12T01:09:37;20.60;99.90
21318;DHT22;10818;50.830;6.524;2023-09-12T01:14:37;20.60;99.90
21318;DHT22;10818;50.830;6.524;2023-09-12T01:19:38;20.60;99.90
21318;DHT22;10818;50.830;6.524;2023-09-12T01:29:59;20.50;99.90
21318;DHT22;10818;50.830;6.524;2023-09-12T01:35:01;20.40;99.90
21318;DHT22;10818;50.830;6.524;2023-09-12T01:40:03;20.30;99.90
21318;DHT22;10818;50.830;6.524;2023-09-12T01:45:04;20.30;99.90
21318;DHT22;10818;50.830;6.524;2023-09-12T01:50:06;20.30;99.90
21318;DHT22;10818;50.830;6.524;2023-09-12T01:55:08;20.30;99.90
21318;DHT22;10818;50.830;6.524;2023-09-12T02:00:10;20.30;99.90
21318;DHT22;10818;50.830;6.524;2023-09-12T02:05:13;20.10;99.90
21318;DHT22;10818;50.830;6.524;2023-09-12T02:10:15;20.10;99.90
21318;DHT22;10818;50.830;6.524;2023-09-12T02:15:16;20.00;99.90
21318;DHT22;10818;50.830;6.524;2023-09-12T02:20:16;20.00;99.90
21318;DHT22;10818;50.830;6.524;2023-09-12T02:25:17;20.00;99.90
21318;DHT22;10818;50.830;6.524;2023-09-12T02:30:17;19.90;99.90
21318;DHT22;10818;50.830;6.524;2023-09-12T02:35:18;19.90;99.90
21318;DHT22;10818;50.830;6.524;2023-09-12T02:40:18;19.90;99.90
21318;DHT22;10818;50.830;6.524;2023-09-12T02:45:19;19.80;99.90
21318;DHT22;10818;50.830;6.524;2023-09-12T02:50:19;19.80;99.90
21318;DHT22;10818;50.830;6.524;2023-09-12T02:55:20;19.70;99.90
21318;DHT22;10818;50.830;6.524;2023-09-12T03:00:20;19.70;99.90
21318;DHT22;10818;50.830;6.524;2023-09-12T03:05:21;19.70;99.90
21318;DHT22;10818;50.830;6.524;2023-09-12T03:10:21;19.60;99.90
21318;DHT22;10818;50.830;6.524;2023-09-12T03:15:21;19.60;99.90
21318;DHT22;10818;50.830;6.524;2023-09-12T03:20:22;19.60;99.90
21318;DHT22;10818;50.830;6.524;2023-09-12T03:25:22;19.70;99.90
21318;DHT22;10818;50.830;6.524;2023-09-12T03:30:23;19.70;99.90
21318;DHT22;10818;50.830;6.524;2023-09-12T03:35:23;19.80;99.90
21318;DHT22;10818;50.830;6.524;2023-09-12T03:40:24;19.80;99.90
21318;DHT22;10818;50.830;6.524;2023-09-12T03:45:24;19.90;99.90
21318;DHT22;10818;50.830;6.524;2023-09-12T03:50:24;19.90;99.90
21318;DHT22;10818;50.830;6.524;2023-09-12T03:55:25;20.00;99.90
21318;DHT22;10818;50.830;6.524;2023-09-12T04:00:25;20.10;99.90
21318;DHT22;10818;50.830;6.524;2023-09-12T04:05:26;20.10;99.90
21318;DHT22;10818;50.830;6.524;2023-09-12T04:10:27;20.20;99.90
21318;DHT22;10818;50.830;6.524;2023-09-12T04:15:27;20.40;99.90
21318;DHT22;10818;50.830;6.524;2023-09-12T04:20:28;20.30;99.90
21318;DHT22;10818;50.830;6.524;2023-09-12T04:25:28;20.20;99.90
21318;DHT22;10818;50.830;6.524;2023-09-12T04:30:29;20.30;99.90
21318;DHT22;10818;50.830;6.524;2023-09-12T04:35:32;20.30;99.90
21318;DHT22;10818;50.830;6.524;2023-09-12T04:40:32;20.10;99.90
21318;DHT22;10818;50.830;6.524;2023-09-12T04:45:33;20.00;99.90
21318;DHT22;10818;50.830;6.524;2023-09-12T04:50:35;20.00;99.90
21318;DHT22;10818;50.830;6.524;2023-09-12T04:55:40;20.10;99.90
21318;DHT22;10818;50.830;6.524;2023-09-12T05:00:40;20.20;99.90
21318;DHT22;10818;50.830;6.524;2023-09-12T05:05:41;20.20;99.90
21318;DHT22;10818;50.830;6.524;2023-09-12T05:10:43;20.50;99.90
21318;DHT22;10818;50.830;6.524;2023-09-12T05:15:44;20.40;99.90
21318;DHT22;10818;50.830;6.524;2023-09-12T05:20:44;20.50;99.90
21318;DHT22;10818;50.830;6.524;2023-09-12T05:25:45;20.60;99.90
21318;DHT22;10818;50.830;6.524;2023-09-12T05:36:23;20.50;99.90
21318;DHT22;10818;50.830;6.524;2023-09-12T05:41:24;20.70;99.90
21318;DHT22;10818;50.830;6.524;2023-09-12T05:46:25;20.80;99.90
21318;DHT22;10818;50.830;6.524;2023-09-12T05:51:25;21.00;99.90
21318;DHT22;10818;50.830;6.524;2023-09-12T05:56:26;21.10;99.90
21318;DHT22;10818;50.830;6.524;2023-09-12T06:01:27;21.30;99.90
21318;DHT22;10818;50.830;6.524;2023-09-12T06:06:27;21.40;99.90
21318;DHT22;10818;50.830;6.524;2023-09-12T06:11:28;21.30;99.90
21318;DHT22;10818;50.830;6.524;2023-09-12T06:16:28;21.40;99.90
21318;DHT22;10818;50.830;6.524;2023-09-12T06:21:30;21.40;99.90
21318;DHT22;10818;50.830;6.524;2023-09-12T06:26:30;21.90;99.90
21318;DHT22;10818;50.830;6.524;2023-09-12T06:31:31;22.20;99.90
21318;DHT22;10818;50.830;6.524;2023-09-12T06:36:31;22.30;99.90
21318;DHT22;10818;50.830;6.524;2023-09-12T06:41:32;23.00;99.90
21318;DHT22;10818;50.830;6.524;2023-09-12T06:46:32;23.40;99.90
21318;DHT22;10818;50.830;6.524;2023-09-12T06:51:36;24.20;99.90
21318;DHT22;10818;50.830;6.524;2023-09-12T06:56:36;24.70;99.90
21318;DHT22;10818;50.830;6.524;2023-09-12T07:01:38;25.10;99.90
21318;DHT22;10818;50.830;6.524;2023-09-12T07:06:38;25.20;99.90
21318;DHT22;10818;50.830;6.524;2023-09-12T07:11:38;25.80;99.90
21318;DHT22;10818;50.830;6.524;2023-09-12T07:16:39;25.60;99.90
21318;DHT22;10818;50.830;6.524;2023-09-12T07:21:39;25.50;99.90
21318;DHT22;10818;50.830;6.524;2023-09-12T07:26:40;26.90;99.90
21318;DHT22;10818;50.830;6.524;2023-09-12T07:31:40;30.20;99.90
21318;DHT22;10818;50.830;6.524;2023-09-12T07:36:41;32.90;99.90
21318;DHT22;10818;50.830;6.524;2023-09-12T07:41:41;35.40;99.90
21318;DHT22;10818;50.830;6.524;2023-09-12T07:46:42;37.70;96.90
21318;DHT22;10818;50.830;6.524;2023-09-12T07:51:43;39.40;90.60
21318;DHT22;10818;50.830;6.524;2023-09-12T07:56:43;37.60;90.00
21318;DHT22;10818;50.830;6.524;2023-09-12T08:01:44;40.30;85.60
21318;DHT22;10818;50.830;6.524;2023-09-12T08:06:44;42.00;74.90
21318;DHT22;10818;50.830;6.524;2023-09-12T08:11:45;44.10;69.20
21318;DHT22;10818;50.830;6.524;2023-09-12T08:16:45;43.90;63.30
21318;DHT22;10818;50.830;6.524;2023-09-12T08:21:46;43.30;62.90
21318;DHT22;10818;50.830;6.524;2023-09-12T08:26:46;44.60;60.90
21318;DHT22;10818;50.830;6.524;2023-09-12T08:31:46;43.50;61.70
21318;DHT22;10818;50.830;6.524;2023-09-12T08:36:47;41.90;64.20
21318;DHT22;10818;50.830;6.524;2023-09-12T08:41:47;37.30;71.20
21318;DHT22;10818;50.830;6.524;2023-09-12T08:46:49;36.60;77.40
21318;DHT22;10818;50.830;6.524;2023-09-12T08:51:49;35.90;80.60
21318;DHT22;10818;50.830;6.524;2023-09-12T08:56:50;35.20;84.10
21318;DHT22;10818;50.830;6.524;2023-09-12T09:01:51;33.40;91.10
21318;DHT22;10818;50.830;6.524;2023-09-12T09:06:52;32.80;94.10
21318;DHT22;10818;50.830;6.524;2023-09-12T09:11:54;32.00;95.60
21318;DHT22;10818;50.830;6.524;2023-09-12T09:16:55;32.30;96.90
21318;DHT22;10818;50.830;6.524;2023-09-12T09:21:56;31.80;98.00
21318;DHT22;10818;50.830;6.524;2023-09-12T09:27:04;31.20;99.80
21318;DHT22;10818;50.830;6.524;2023-09-12T09:32:05;31.10;99.90
21318;DHT22;10818;50.830;6.524;2023-09-12T09:37:16;30.80;99.90
21318;DHT22;10818;50.830;6.524;2023-09-12T09:42:19;30.50;99.90
21318;DHT22;10818;50.830;6.524;2023-09-12T09:47:20;30.50;99.90
21318;DHT22;10818;50.830;6.524;2023-09-12T09:52:26;31.40;99.90
21318;DHT22;10818;50.830;6.524;2023-09-12T09:57:28;30.90;99.90
21318;DHT22;10818;50.830;6.524;2023-09-12T10:02:28;30.00;99.90
21318;DHT22;10818;50.830;6.524;2023-09-12T10:07:29;30.20;99.90
21318;DHT22;10818;50.830;6.524;2023-09-12T10:12:35;30.40;99.90
21318;DHT22;10818;50.830;6.524;2023-09-12T10:17:37;30.10;99.90
21318;DHT22;10818;50.830;6.524;2023-09-12T10:22:43;29.30;99.90
21318;DHT22;10818;50.830;6.524;2023-09-12T10:27:50;29.30;99.90
21318;DHT22;10818;50.830;6.524;2023-09-12T10:32:52;29.90;99.90
21318;DHT22;10818;50.830;6.524;2023-09-12T10:37:52;29.70;99.90
21318;DHT22;10818;50.830;6.524;2023-09-12T10:42:55;29.20;99.90
21318;DHT22;10818;50.830;6.524;2023-09-12T10:47:55;29.90;99.90
21318;DHT22;10818;50.830;6.524;2023-09-12T10:52:56;30.30;99.90
21318;DHT22;10818;50.830;6.524;2023-09-12T10:58:08;30.10;99.90
21318;DHT22;10818;50.830;6.524;2023-09-12T11:08:27;30.10;99.90
21318;DHT22;10818;50.830;6.524;2023-09-12T11:13:29;29.60;99.90
21318;DHT22;10818;50.830;6.524;2023-09-12T11:23:59;29.00;99.90
21318;DHT22;10818;50.830;6.524;2023-09-12T11:29:12;29.40;99.90
21318;DHT22;10818;50.830;6.524;2023-09-12T11:34:13;29.80;99.90
21318;DHT22;10818;50.830;6.524;2023-09-12T11:39:24;29.90;99.90
21318;DHT22;10818;50.830;6.524;2023-09-12T11:44:25;29.80;99.90
21318;DHT22;10818;50.830;6.524;2023-09-12T11:49:26;29.90;99.90
21318;DHT22;10818;50.830;6.524;2023-09-12T11:54:29;29.90;99.90
21318;DHT22;10818;50.830;6.524;2023-09-12T11:59:29;30.10;99.90
21318;DHT22;10818;50.830;6.524;2023-09-12T12:04:30;30.20;99.90
21318;DHT22;10818;50.830;6.524;2023-09-12T12:09:30;29.60;99.90
21318;DHT22;10818;50.830;6.524;2023-09-12T12:14:33;29.20;99.90
21318;DHT22;10818;50.830;6.524;2023-09-12T12:19:33;28.80;99.90
21318;DHT22;10818;50.830;6.524;2023-09-12T12:24:52;28.60;99.90
21318;DHT22;10818;50.830;6.524;2023-09-12T12:29:52;28.50;99.90
21318;DHT22;10818;50.830;6.524;2023-09-12T12:34:53;28.80;99.90
21318;DHT22;10818;50.830;6.524;2023-09-12T12:39:53;28.90;99.90
21318;DHT22;10818;50.830;6.524;2023-09-12T12:44:54;28.80;99.90
21318;DHT22;10818;50.830;6.524;2023-09-12T12:49:55;28.90;99.90
21318;DHT22;10818;50.830;6.524;2023-09-12T12:55:02;29.30;99.90
21318;DHT22;10818;50.830;6.524;2023-09-12T13:00:07;29.00;99.90
21318;DHT22;10818;50.830;6.524;2023-09-12T13:05:24;29.40;99.90
21318;DHT22;10818;50.830;6.524;2023-09-12T13:10:25;29.20;99.90
21318;DHT22;10818;50.830;6.524;2023-09-12T13:15:26;28.50;99.90
21318;DHT22;10818;50.830;6.524;2023-09-12T13:20:26;28.80;99.90
21318;DHT22;10818;50.830;6.524;2023-09-12T13:25:26;29.30;99.90
21318;DHT22;10818;50.830;6.524;2023-09-12T13:30:27;28.90;99.90
21318;DHT22;10818;50.830;6.524;2023-09-12T13:35:27;28.70;99.90
21318;DHT22;10818;50.830;6.524;2023-09-12T13:40:28;28.60;99.90
21318;DHT22;10818;50.830;6.524;2023-09-12T13:45:28;29.30;99.90
21318;DHT22;10818;50.830;6.524;2023-09-12T13:50:29;29.40;99.90
21318;DHT22;10818;50.830;6.524;2023-09-12T13:55:29;29.10;99.90
21318;DHT22;10818;50.830;6.524;2023-09-12T14:00:31;29.10;99.90
21318;DHT22;10818;50.830;6.524;2023-09-12T14:05:31;29.00;99.90
21318;DHT22;10818;50.830;6.524;2023-09-12T14:10:32;28.60;99.90
21318;DHT22;10818;50.830;6.524;2023-09-12T14:15:32;28.10;99.90
21318;DHT22;10818;50.830;6.524;2023-09-12T14:20:33;27.70;99.90
21318;DHT22;10818;50.830;6.524;2023-09-12T14:25:33;27.90;99.90
21318;DHT22;10818;50.830;6.524;2023-09-12T14:30:34;28.10;99.90
21318;DHT22;10818;50.830;6.524;2023-09-12T14:35:35;28.00;99.90
21318;DHT22;10818;50.830;6.524;2023-09-12T14:40:36;28.40;99.90
21318;DHT22;10818;50.830;6.524;2023-09-12T14:45:38;28.80;99.90
21318;DHT22;10818;50.830;6.524;2023-09-12T14:50:38;29.40;99.90
21318;DHT22;10818;50.830;6.524;2023-09-12T14:55:39;29.70;99.90
21318;DHT22;10818;50.830;6.524;2023-09-12T15:00:39;29.50;99.90
21318;DHT22;10818;50.830;6.524;2023-09-12T15:05:40;29.80;99.90
21318;DHT22;10818;50.830;6.524;2023-09-12T15:10:40;29.50;99.90
21318;DHT22;10818;50.830;6.524;2023-09-12T15:15:41;29.40;99.90
21318;DHT22;10818;50.830;6.524;2023-09-12T15:20:41;29.40;99.90
21318;DHT22;10818;50.830;6.524;2023-09-12T15:25:42;29.40;99.90
21318;DHT22;10818;50.830;6.524;2023-09-12T15:30:42;29.30;99.90
21318;DHT22;10818;50.830;6.524;2023-09-12T15:35:43;29.30;99.90
21318;DHT22;10818;50.830;6.524;2023-09-12T15:40:43;29.20;99.90
21318;DHT22;10818;50.830;6.524;2023-09-12T15:45:43;28.80;99.90
21318;DHT22;10818;50.830;6.524;2023-09-12T15:50:44;28.80;99.90
21318;DHT22;10818;50.830;6.524;2023-09-12T15:55:44;28.50;99.90
21318;DHT22;10818;50.830;6.524;2023-09-12T16:00:45;28.10;99.90
21318;DHT22;10818;50.830;6.524;2023-09-12T16:05:45;27.70;99.90
21318;DHT22;10818;50.830;6.524;2023-09-12T16:10:46;27.30;99.90
21318;DHT22;10818;50.830;6.524;2023-09-12T16:15:47;26.90;99.90
21318;DHT22;10818;50.830;6.524;2023-09-12T16:20:47;26.70;99.90
21318;DHT22;10818;50.830;6.524;2023-09-12T16:25:48;26.70;99.90
21318;DHT22;10818;50.830;6.524;2023-09-12T16:30:51;26.60;99.90
21318;DHT22;10818;50.830;6.524;2023-09-12T16:35:51;26.50;99.90
21318;DHT22;10818;50.830;6.524;2023-09-12T16:40:52;26.40;99.90
21318;DHT22;10818;50.830;6.524;2023-09-12T16:45:52;26.10;99.90
21318;DHT22;10818;50.830;6.524;2023-09-12T16:50:53;25.90;99.90
21318;DHT22;10818;50.830;6.524;2023-09-12T16:55:53;25.90;99.90
21318;DHT22;10818;50.830;6.524;2023-09-12T17:00:54;25.60;99.90
21318;DHT22;10818;50.830;6.524;2023-09-12T17:05:54;25.60;99.90
21318;DHT22;10818;50.830;6.524;2023-09-12T17:10:55;25.40;99.90
21318;DHT22;10818;50.830;6.524;2023-09-12T17:15:56;25.20;99.90
21318;DHT22;10818;50.830;6.524;2023-09-12T17:20:56;25.10;99.90
21318;DHT22;10818;50.830;6.524;2023-09-12T17:25:57;25.00;99.90
21318;DHT22;10818;50.830;6.524;2023-09-12T17:30:57;25.00;99.90
21318;DHT22;10818;50.830;6.524;2023-09-12T17:35:58;24.80;99.90
21318;DHT22;10818;50.830;6.524;2023-09-12T17:40:58;24.20;99.90
21318;DHT22;10818;50.830;6.524;2023-09-12T17:45:59;24.10;99.90
21318;DHT22;10818;50.830;6.524;2023-09-12T17:50:59;24.10;99.90
21318;DHT22;10818;50.830;6.524;2023-09-12T17:55:59;24.00;99.90
21318;DHT22;10818;50.830;6.524;2023-09-12T18:01:01;23.70;99.90
21318;DHT22;10818;50.830;6.524;2023-09-12T18:06:02;23.80;99.90
21318;DHT22;10818;50.830;6.524;2023-09-12T18:11:03;23.60;99.90
21318;DHT22;10818;50.830;6.524;2023-09-12T18:16:03;23.60;99.90
21318;DHT22;10818;50.830;6.524;2023-09-12T18:21:04;23.30;99.90
21318;DHT22;10818;50.830;6.524;2023-09-12T18:26:07;22.00;99.90
21318;DHT22;10818;50.830;6.524;2023-09-12T18:31:08;20.80;99.90
21318;DHT22;10818;50.830;6.524;2023-09-12T18:36:09;20.20;99.90
21318;DHT22;10818;50.830;6.524;2023-09-12T18:41:10;20.10;99.90
21318;DHT22;10818;50.830;6.524;2023-09-12T18:46:13;20.00;99.90
21318;DHT22;10818;50.830;6.524;2023-09-12T18:51:14;20.00;99.90
21318;DHT22;10818;50.830;6.524;2023-09-12T18:56:15;20.10;99.90
21318;DHT22;10818;50.830;6.524;2023-09-12T19:01:15;20.20;99.90
21318;DHT22;10818;50.830;6.524;2023-09-12T19:06:16;20.00;99.90
21318;DHT22;10818;50.830;6.524;2023-09-12T19:11:17;19.90;99.90
21318;DHT22;10818;50.830;6.524;2023-09-12T19:16:19;19.80;99.90
21318;DHT22;10818;50.830;6.524;2023-09-12T19:21:20;19.60;99.90
21318;DHT22;10818;50.830;6.524;2023-09-12T19:26:20;19.60;99.90
21318;DHT22;10818;50.830;6.524;2023-09-12T19:31:21;19.70;99.90
21318;DHT22;10818;50.830;6.524;2023-09-12T19:36:21;19.80;99.90
21318;DHT22;10818;50.830;6.524;2023-09-12T19:41:21;19.80;99.90
21318;DHT22;10818;50.830;6.524;2023-09-12T19:46:22;19.80;99.90
21318;DHT22;10818;50.830;6.524;2023-09-12T20:05:03;19.80;99.90
21318;DHT22;10818;50.830;6.524;2023-09-12T20:10:04;19.70;99.90
21318;DHT22;10818;50.830;6.524;2023-09-12T20:15:05;19.60;99.90
21318;DHT22;10818;50.830;6.524;2023-09-12T20:20:06;19.60;99.90
21318;DHT22;10818;50.830;6.524;2023-09-12T20:25:07;19.50;99.90
21318;DHT22;10818;50.830;6.524;2023-09-12T20:30:08;19.70;99.90
21318;DHT22;10818;50.830;6.524;2023-09-12T20:35:08;19.80;99.90
21318;DHT22;10818;50.830;6.524;2023-09-12T20:40:09;19.80;99.90
21318;DHT22;10818;50.830;6.524;2023-09-12T20:45:10;19.60;99.90
21318;DHT22;10818;50.830;6.524;2023-09-12T20:50:10;19.50;99.90
21318;DHT22;10818;50.830;6.524;2023-09-12T20:55:13;19.40;99.90
21318;DHT22;10818;50.830;6.524;2023-09-12T21:00:13;19.30;99.90
21318;DHT22;10818;50.830;6.524;2023-09-12T21:05:14;19.20;99.90
21318;DHT22;10818;50.830;6.524;2023-09-12T21:10:16;19.30;99.90
21318;DHT22;10818;50.830;6.524;2023-09-12T21:15:16;19.30;99.90
21318;DHT22;10818;50.830;6.524;2023-09-12T21:20:16;19.40;99.90
21318;DHT22;10818;50.830;6.524;2023-09-12T21:25:17;19.40;99.90
21318;DHT22;10818;50.830;6.524;2023-09-12T21:30:17;19.50;99.90
21318;DHT22;10818;50.830;6.524;2023-09-12T21:35:18;19.60;99.90
21318;DHT22;10818;50.830;6.524;2023-09-12T21:40:19;19.60;99.90
21318;DHT22;10818;50.830;6.524;2023-09-12T21:45:21;19.70;99.90
21318;DHT22;10818;50.830;6.524;2023-09-12T21:50:21;19.60;99.90
21318;DHT22;10818;50.830;6.524;2023-09-12T21:55:21;19.60;99.90
21318;DHT22;10818;50.830;6.524;2023-09-12T22:00:22;19.70;99.90
21318;DHT22;10818;50.830;6.524;2023-09-12T22:05:23;19.70;99.90
21318;DHT22;10818;50.830;6.524;2023-09-12T22:10:24;19.80;99.90
21318;DHT22;10818;50.830;6.524;2023-09-12T22:15:24;19.80;99.90
21318;DHT22;10818;50.830;6.524;2023-09-12T22:20:25;19.80;99.90
21318;DHT22;10818;50.830;6.524;2023-09-12T22:25:26;19.80;99.90
21318;DHT22;10818;50.830;6.524;2023-09-12T22:30:26;19.80;99.90
21318;DHT22;10818;50.830;6.524;2023-09-12T22:35:27;19.80;99.90
21318;DHT22;10818;50.830;6.524;2023-09-12T22:40:27;19.90;99.90
21318;DHT22;10818;50.830;6.524;2023-09-12T22:45:28;19.80;99.90
21318;DHT22;10818;50.830;6.524;2023-09-12T22:50:28;19.80;99.90
21318;DHT22;10818;50.830;6.524;2023-09-12T22:55:29;19.70;99.90
21318;DHT22;10818;50.830;6.524;2023-09-12T23:00:29;19.70;99.90
21318;DHT22;10818;50.830;6.524;2023-09-12T23:05:30;19.80;99.90
21318;DHT22;10818;50.830;6.524;2023-09-12T23:10:30;19.80;99.90
21318;DHT22;10818;50.830;6.524;2023-09-12T23:15:31;19.80;99.90
21318;DHT22;10818;50.830;6.524;2023-09-12T23:20:32;19.80;99.90
21318;DHT22;10818;50.830;6.524;2023-09-12T23:25:32;19.80;99.90
21318;DHT22;10818;50.830;6.524;2023-09-12T23:30:32;19.80;99.90
21318;DHT22;10818;50.830;6.524;2023-09-12T23:35:33;19.80;99.90
21318;DHT22;10818;50.830;6.524;2023-09-12T23:40:34;19.70;99.90
21318;DHT22;10818;50.830;6.524;2023-09-12T23:45:34;19.70;99.90
21318;DHT22;10818;50.830;6.524;2023-09-12T23:50:34;19.70;99.90
21318;DHT22;10818;50.830;6.524;2023-09-12T23:55:35;19.60;99.90
